Terminal Aerodrome Forecast
Issued by NWS

Home | Current Version | Previous Version | Text Only | Print | Product List | Glossary On
Versions: 1 2 3 4 5 6 7 8 9 10 11 12 13 14 15 16 17
542
FTUS43 KMQT 191740
TAFCMX
TAF
KCMX 191740Z 1918/2018 11007KT P6SM FEW150
     FM200800 12009KT P6SM SCT200 WS010/18035KT
     FM201400 13011G20KT P6SM BKN110
     FM201600 16012G22KT P6SM BKN080=

USA.gov is the U.S. government's official web portal to all federal, state and local government web resources and services.